sensor_id;sensor_type;location;lat;lon;timestamp;pressure;altitude;pressure_sealevel;temperature;humidity
62420;BME280;48460;51.616;5.426;2023-03-22T00:00:43;100863.81;;;8.60;100.00
62420;BME280;48460;51.616;5.426;2023-03-22T00:03:24;100861.19;;;8.60;100.00
62420;BME280;48460;51.616;5.426;2023-03-22T00:06:09;100848.47;;;8.51;100.00
62420;BME280;48460;51.616;5.426;2023-03-22T00:08:39;100860.38;;;8.58;100.00
62420;BME280;48460;51.616;5.426;2023-03-22T00:11:22;100848.47;;;8.51;100.00
62420;BME280;48460;51.616;5.426;2023-03-22T00:14:03;100842.56;;;8.46;100.00
62420;BME280;48460;51.616;5.426;2023-03-22T00:16:31;100831.38;;;8.42;100.00
62420;BME280;48460;51.616;5.426;2023-03-22T00:18:59;100834.06;;;8.41;100.00
62420;BME280;48460;51.616;5.426;2023-03-22T00:21:24;100834.91;;;8.41;100.00
62420;BME280;48460;51.616;5.426;2023-03-22T00:23:53;100831.53;;;8.38;100.00
62420;BME280;48460;51.616;5.426;2023-03-22T00:33:29;100824.50;;;8.40;100.00
62420;BME280;48460;51.616;5.426;2023-03-22T00:36:04;100815.03;;;8.36;100.00
62420;BME280;48460;51.616;5.426;2023-03-22T00:38:33;100814.06;;;8.38;100.00
62420;BME280;48460;51.616;5.426;2023-03-22T00:41:27;100808.34;;;8.29;100.00
62420;BME280;48460;51.616;5.426;2023-03-22T00:43:55;100798.09;;;8.24;100.00
62420;BME280;48460;51.616;5.426;2023-03-22T00:47:02;100813.28;;;8.36;100.00
62420;BME280;48460;51.616;5.426;2023-03-22T01:13:14;100765.47;;;8.11;100.00
62420;BME280;48460;51.616;5.426;2023-03-22T01:15:52;100779.13;;;8.17;100.00
62420;BME280;48460;51.616;5.426;2023-03-22T01:18:20;100760.94;;;8.14;100.00
62420;BME280;48460;51.616;5.426;2023-03-22T01:20:48;100744.63;;;8.08;100.00
62420;BME280;48460;51.616;5.426;2023-03-22T01:23:14;100737.56;;;8.10;100.00
62420;BME280;48460;51.616;5.426;2023-03-22T01:25:45;100736.47;;;8.15;100.00
62420;BME280;48460;51.616;5.426;2023-03-22T01:31:33;100719.53;;;8.22;100.00
62420;BME280;48460;51.616;5.426;2023-03-22T01:37:27;100703.34;;;8.33;100.00
62420;BME280;48460;51.616;5.426;2023-03-22T01:39:56;100702.28;;;8.39;100.00
62420;BME280;48460;51.616;5.426;2023-03-22T01:42:25;100706.09;;;8.51;100.00
62420;BME280;48460;51.616;5.426;2023-03-22T01:51:56;100679.66;;;8.74;100.00
62420;BME280;48460;51.616;5.426;2023-03-22T02:00:59;100650.81;;;8.74;100.00
62420;BME280;48460;51.616;5.426;2023-03-22T02:06:29;100652.38;;;8.78;100.00
62420;BME280;48460;51.616;5.426;2023-03-22T02:09:17;100640.03;;;8.80;100.00
62420;BME280;48460;51.616;5.426;2023-03-22T02:11:58;100662.19;;;8.92;100.00
62420;BME280;48460;51.616;5.426;2023-03-22T02:43:20;100634.84;;;9.15;100.00
62420;BME280;48460;51.616;5.426;2023-03-22T02:53:23;100621.03;;;9.11;100.00
62420;BME280;48460;51.616;5.426;2023-03-22T02:59:35;100620.53;;;9.22;100.00
62420;BME280;48460;51.616;5.426;2023-03-22T03:05:45;100599.06;;;9.14;100.00
62420;BME280;48460;51.616;5.426;2023-03-22T03:08:17;100603.16;;;9.20;100.00
62420;BME280;48460;51.616;5.426;2023-03-22T03:10:50;100605.84;;;9.18;100.00
62420;BME280;48460;51.616;5.426;2023-03-22T03:13:19;100601.59;;;9.16;100.00
62420;BME280;48460;51.616;5.426;2023-03-22T03:15:51;100592.97;;;9.13;100.00
62420;BME280;48460;51.616;5.426;2023-03-22T03:32:03;100594.66;;;9.15;100.00
62420;BME280;48460;51.616;5.426;2023-03-22T03:54:47;100612.63;;;9.05;100.00
62420;BME280;48460;51.616;5.426;2023-03-22T03:57:32;100593.94;;;8.94;100.00
62420;BME280;48460;51.616;5.426;2023-03-22T04:00:03;100590.78;;;8.87;100.00
62420;BME280;48460;51.616;5.426;2023-03-22T04:02:31;100593.56;;;8.84;100.00
62420;BME280;48460;51.616;5.426;2023-03-22T04:05:04;100603.19;;;8.83;100.00
62420;BME280;48460;51.616;5.426;2023-03-22T04:14:20;100586.13;;;8.75;100.00
62420;BME280;48460;51.616;5.426;2023-03-22T04:16:46;100581.75;;;8.75;100.00
62420;BME280;48460;51.616;5.426;2023-03-22T04:19:15;100593.75;;;8.79;100.00
62420;BME280;48460;51.616;5.426;2023-03-22T04:21:53;100592.38;;;8.72;100.00
62420;BME280;48460;51.616;5.426;2023-03-22T04:24:58;100591.38;;;8.75;100.00
62420;BME280;48460;51.616;5.426;2023-03-22T04:27:27;100590.50;;;8.74;100.00
62420;BME280;48460;51.616;5.426;2023-03-22T04:33:39;100576.00;;;8.67;100.00
62420;BME280;48460;51.616;5.426;2023-03-22T04:39:57;100574.09;;;8.71;100.00
62420;BME280;48460;51.616;5.426;2023-03-22T04:42:34;100578.09;;;8.60;100.00
62420;BME280;48460;51.616;5.426;2023-03-22T04:45:09;100564.44;;;8.54;100.00
62420;BME280;48460;51.616;5.426;2023-03-22T04:47:37;100572.16;;;8.57;100.00
62420;BME280;48460;51.616;5.426;2023-03-22T04:50:05;100556.44;;;8.57;100.00
62420;BME280;48460;51.616;5.426;2023-03-22T04:52:42;100569.22;;;8.63;100.00
62420;BME280;48460;51.616;5.426;2023-03-22T04:58:33;100572.00;;;8.60;100.00
62420;BME280;48460;51.616;5.426;2023-03-22T05:01:05;100576.06;;;8.65;100.00
62420;BME280;48460;51.616;5.426;2023-03-22T05:03:35;100557.19;;;8.59;100.00
62420;BME280;48460;51.616;5.426;2023-03-22T05:06:22;100559.75;;;8.60;100.00
62420;BME280;48460;51.616;5.426;2023-03-22T05:08:50;100552.78;;;8.59;100.00
62420;BME280;48460;51.616;5.426;2023-03-22T05:11:20;100555.25;;;8.62;100.00
62420;BME280;48460;51.616;5.426;2023-03-22T05:14:10;100545.06;;;8.56;100.00
62420;BME280;48460;51.616;5.426;2023-03-22T05:24:05;100573.75;;;8.59;100.00
62420;BME280;48460;51.616;5.426;2023-03-22T05:26:33;100532.91;;;8.55;100.00
62420;BME280;48460;51.616;5.426;2023-03-22T05:29:03;100552.72;;;8.61;100.00
62420;BME280;48460;51.616;5.426;2023-03-22T05:41:50;100564.75;;;8.65;100.00
62420;BME280;48460;51.616;5.426;2023-03-22T05:51:51;100551.19;;;8.57;100.00
62420;BME280;48460;51.616;5.426;2023-03-22T05:57:49;100554.00;;;8.52;100.00
62420;BME280;48460;51.616;5.426;2023-03-22T06:00:19;100553.84;;;8.55;100.00
62420;BME280;48460;51.616;5.426;2023-03-22T06:03:16;100571.75;;;8.64;100.00
62420;BME280;48460;51.616;5.426;2023-03-22T06:05:50;100551.88;;;8.60;100.00
62420;BME280;48460;51.616;5.426;2023-03-22T06:12:14;100555.19;;;8.64;100.00
62420;BME280;48460;51.616;5.426;2023-03-22T06:14:43;100548.03;;;8.67;100.00
62420;BME280;48460;51.616;5.426;2023-03-22T06:17:21;100547.19;;;8.67;100.00
62420;BME280;48460;51.616;5.426;2023-03-22T06:19:51;100543.47;;;8.71;100.00
62420;BME280;48460;51.616;5.426;2023-03-22T06:22:42;100533.06;;;8.70;100.00
62420;BME280;48460;51.616;5.426;2023-03-22T06:29:12;100541.47;;;8.76;100.00
62420;BME280;48460;51.616;5.426;2023-03-22T06:32:43;100555.44;;;8.94;100.00
62420;BME280;48460;51.616;5.426;2023-03-22T06:35:14;100541.81;;;8.87;100.00
62420;BME280;48460;51.616;5.426;2023-03-22T06:38:00;100534.78;;;8.88;100.00
62420;BME280;48460;51.616;5.426;2023-03-22T06:40:29;100539.81;;;8.93;100.00
62420;BME280;48460;51.616;5.426;2023-03-22T06:50:02;100560.50;;;9.16;100.00
62420;BME280;48460;51.616;5.426;2023-03-22T06:52:34;100545.66;;;9.15;100.00
62420;BME280;48460;51.616;5.426;2023-03-22T07:10:40;100540.91;;;9.56;100.00
62420;BME280;48460;51.616;5.426;2023-03-22T07:13:40;100550.56;;;9.56;100.00
62420;BME280;48460;51.616;5.426;2023-03-22T07:16:20;100544.78;;;9.49;100.00
62420;BME280;48460;51.616;5.426;2023-03-22T07:18:50;100533.44;;;9.49;100.00
62420;BME280;48460;51.616;5.426;2023-03-22T07:24:41;100546.16;;;9.56;100.00
62420;BME280;48460;51.616;5.426;2023-03-22T07:27:19;100534.97;;;9.53;100.00
62420;BME280;48460;51.616;5.426;2023-03-22T07:33:27;100552.84;;;9.62;100.00
62420;BME280;48460;51.616;5.426;2023-03-22T07:39:38;100578.75;;;9.86;100.00
62420;BME280;48460;51.616;5.426;2023-03-22T07:45:24;100565.34;;;9.74;100.00
62420;BME280;48460;51.616;5.426;2023-03-22T07:47:55;100566.72;;;9.81;100.00
62420;BME280;48460;51.616;5.426;2023-03-22T07:50:25;100556.28;;;9.80;100.00
62420;BME280;48460;51.616;5.426;2023-03-22T07:52:54;100559.41;;;9.87;100.00
62420;BME280;48460;51.616;5.426;2023-03-22T07:55:19;100557.91;;;9.82;100.00
62420;BME280;48460;51.616;5.426;2023-03-22T07:57:51;100562.16;;;9.85;100.00
62420;BME280;48460;51.616;5.426;2023-03-22T08:00:27;100562.06;;;9.87;100.00
62420;BME280;48460;51.616;5.426;2023-03-22T08:03:01;100570.53;;;9.92;100.00
62420;BME280;48460;51.616;5.426;2023-03-22T08:05:29;100559.25;;;9.90;100.00
62420;BME280;48460;51.616;5.426;2023-03-22T08:08:09;100551.81;;;9.98;100.00
62420;BME280;48460;51.616;5.426;2023-03-22T08:11:16;100560.38;;;10.01;100.00
62420;BME280;48460;51.616;5.426;2023-03-22T08:13:46;100561.31;;;10.16;100.00
62420;BME280;48460;51.616;5.426;2023-03-22T08:16:12;100567.84;;;10.25;100.00
62420;BME280;48460;51.616;5.426;2023-03-22T08:19:01;100563.91;;;10.34;100.00
62420;BME280;48460;51.616;5.426;2023-03-22T08:21:46;100559.16;;;10.40;100.00
62420;BME280;48460;51.616;5.426;2023-03-22T08:24:11;100568.97;;;10.53;100.00
62420;BME280;48460;51.616;5.426;2023-03-22T08:26:37;100555.75;;;10.54;100.00
62420;BME280;48460;51.616;5.426;2023-03-22T08:29:14;100562.34;;;10.61;100.00
62420;BME280;48460;51.616;5.426;2023-03-22T08:41:44;100551.53;;;11.12;99.61
62420;BME280;48460;51.616;5.426;2023-03-22T08:47:34;100551.91;;;11.06;99.43
62420;BME280;48460;51.616;5.426;2023-03-22T08:53:16;100547.75;;;11.02;98.54
62420;BME280;48460;51.616;5.426;2023-03-22T08:55:49;100558.88;;;11.07;98.74
62420;BME280;48460;51.616;5.426;2023-03-22T08:58:17;100547.22;;;11.11;100.00
62420;BME280;48460;51.616;5.426;2023-03-22T09:01:08;100566.16;;;11.32;99.31
62420;BME280;48460;51.616;5.426;2023-03-22T09:03:49;100542.28;;;11.35;97.83
62420;BME280;48460;51.616;5.426;2023-03-22T09:06:39;100532.13;;;11.29;98.37
62420;BME280;48460;51.616;5.426;2023-03-22T09:12:48;100537.88;;;11.50;98.03
62420;BME280;48460;51.616;5.426;2023-03-22T09:18:55;100532.72;;;11.48;95.27
62420;BME280;48460;51.616;5.426;2023-03-22T09:21:46;100540.72;;;11.61;95.36
62420;BME280;48460;51.616;5.426;2023-03-22T09:24:17;100530.44;;;11.56;95.30
62420;BME280;48460;51.616;5.426;2023-03-22T09:26:51;100525.28;;;11.55;96.68
62420;BME280;48460;51.616;5.426;2023-03-22T09:29:29;100522.84;;;11.52;94.10
62420;BME280;48460;51.616;5.426;2023-03-22T09:31:57;100527.72;;;11.44;95.38
62420;BME280;48460;51.616;5.426;2023-03-22T09:34:25;100528.09;;;11.37;94.32
62420;BME280;48460;51.616;5.426;2023-03-22T09:37:28;100512.28;;;11.37;95.71
62420;BME280;48460;51.616;5.426;2023-03-22T09:43:17;100514.81;;;11.39;95.21
62420;BME280;48460;51.616;5.426;2023-03-22T09:50:15;100519.75;;;11.45;94.97
62420;BME280;48460;51.616;5.426;2023-03-22T09:52:43;100517.81;;;11.33;96.54
62420;BME280;48460;51.616;5.426;2023-03-22T10:05:27;100527.50;;;11.32;96.20
62420;BME280;48460;51.616;5.426;2023-03-22T10:16:58;100531.00;;;11.18;98.10
62420;BME280;48460;51.616;5.426;2023-03-22T10:19:35;100547.53;;;11.21;98.49
62420;BME280;48460;51.616;5.426;2023-03-22T10:22:25;100541.38;;;11.06;100.00
62420;BME280;48460;51.616;5.426;2023-03-22T10:24:56;100549.22;;;10.91;100.00
62420;BME280;48460;51.616;5.426;2023-03-22T10:27:38;100545.63;;;10.78;100.00
62420;BME280;48460;51.616;5.426;2023-03-22T10:44:00;100555.28;;;9.98;100.00
62420;BME280;48460;51.616;5.426;2023-03-22T10:46:49;100541.53;;;9.77;100.00
62420;BME280;48460;51.616;5.426;2023-03-22T10:49:43;100544.16;;;9.77;100.00
62420;BME280;48460;51.616;5.426;2023-03-22T10:52:53;100553.31;;;9.86;100.00
62420;BME280;48460;51.616;5.426;2023-03-22T10:55:14;100557.22;;;9.79;100.00
62420;BME280;48460;51.616;5.426;2023-03-22T10:57:53;100548.72;;;9.74;100.00
62420;BME280;48460;51.616;5.426;2023-03-22T11:00:20;100542.53;;;9.75;100.00
62420;BME280;48460;51.616;5.426;2023-03-22T11:03:06;100543.66;;;9.71;100.00
62420;BME280;48460;51.616;5.426;2023-03-22T11:05:39;100548.22;;;9.67;100.00
62420;BME280;48460;51.616;5.426;2023-03-22T11:08:13;100537.44;;;9.72;100.00
62420;BME280;48460;51.616;5.426;2023-03-22T11:10:49;100540.91;;;9.72;100.00
62420;BME280;48460;51.616;5.426;2023-03-22T11:13:20;100546.09;;;9.74;100.00
62420;BME280;48460;51.616;5.426;2023-03-22T11:15:53;100539.34;;;9.70;100.00
62420;BME280;48460;51.616;5.426;2023-03-22T11:18:41;100539.16;;;9.73;100.00
62420;BME280;48460;51.616;5.426;2023-03-22T11:21:14;100542.47;;;9.76;100.00
62420;BME280;48460;51.616;5.426;2023-03-22T11:23:56;100535.16;;;9.66;100.00
62420;BME280;48460;51.616;5.426;2023-03-22T11:26:37;100532.56;;;9.81;100.00
62420;BME280;48460;51.616;5.426;2023-03-22T11:29:18;100535.03;;;9.85;100.00
62420;BME280;48460;51.616;5.426;2023-03-22T11:31:56;100528.00;;;10.01;100.00
62420;BME280;48460;51.616;5.426;2023-03-22T11:34:28;100538.50;;;10.17;100.00
62420;BME280;48460;51.616;5.426;2023-03-22T11:37:00;100537.16;;;10.25;100.00
62420;BME280;48460;51.616;5.426;2023-03-22T11:42:38;100531.41;;;10.35;100.00
62420;BME280;48460;51.616;5.426;2023-03-22T11:55:22;100544.22;;;10.41;100.00
62420;BME280;48460;51.616;5.426;2023-03-22T12:11:49;100512.66;;;10.57;100.00
62420;BME280;48460;51.616;5.426;2023-03-22T12:14:58;100510.78;;;10.59;100.00
62420;BME280;48460;51.616;5.426;2023-03-22T12:18:08;100519.84;;;10.69;100.00
62420;BME280;48460;51.616;5.426;2023-03-22T12:20:49;100510.47;;;10.79;100.00
62420;BME280;48460;51.616;5.426;2023-03-22T12:33:43;100514.69;;;10.98;100.00
62420;BME280;48460;51.616;5.426;2023-03-22T12:50:32;100517.69;;;11.06;100.00
62420;BME280;48460;51.616;5.426;2023-03-22T12:56:46;100521.16;;;11.06;100.00
62420;BME280;48460;51.616;5.426;2023-03-22T13:03:07;100529.81;;;11.08;100.00
62420;BME280;48460;51.616;5.426;2023-03-22T13:18:59;100504.28;;;11.10;100.00
62420;BME280;48460;51.616;5.426;2023-03-22T13:22:19;100509.94;;;11.18;100.00
62420;BME280;48460;51.616;5.426;2023-03-22T13:28:26;100501.16;;;11.04;100.00
62420;BME280;48460;51.616;5.426;2023-03-22T13:37:32;100498.72;;;11.01;100.00
62420;BME280;48460;51.616;5.426;2023-03-22T13:40:37;100517.69;;;11.06;100.00
62420;BME280;48460;51.616;5.426;2023-03-22T13:46:59;100505.47;;;11.05;100.00
62420;BME280;48460;51.616;5.426;2023-03-22T14:00:48;100497.88;;;11.14;100.00
62420;BME280;48460;51.616;5.426;2023-03-22T14:16:16;100492.03;;;11.09;100.00
62420;BME280;48460;51.616;5.426;2023-03-22T14:18:46;100484.63;;;11.02;100.00
62420;BME280;48460;51.616;5.426;2023-03-22T14:21:42;100480.13;;;11.04;100.00
62420;BME280;48460;51.616;5.426;2023-03-22T14:24:13;100478.59;;;11.00;100.00
62420;BME280;48460;51.616;5.426;2023-03-22T14:26:52;100470.03;;;10.96;100.00
62420;BME280;48460;51.616;5.426;2023-03-22T14:29:22;100467.59;;;10.93;100.00
62420;BME280;48460;51.616;5.426;2023-03-22T14:32:01;100467.66;;;10.91;100.00
62420;BME280;48460;51.616;5.426;2023-03-22T14:34:33;100464.84;;;10.94;100.00
62420;BME280;48460;51.616;5.426;2023-03-22T14:40:14;100456.78;;;10.83;100.00
62420;BME280;48460;51.616;5.426;2023-03-22T14:42:51;100448.47;;;10.75;100.00
62420;BME280;48460;51.616;5.426;2023-03-22T14:45:34;100450.16;;;10.76;100.00
62420;BME280;48460;51.616;5.426;2023-03-22T14:51:30;100456.66;;;10.85;100.00
62420;BME280;48460;51.616;5.426;2023-03-22T14:53:57;100462.69;;;10.87;100.00
62420;BME280;48460;51.616;5.426;2023-03-22T14:56:30;100458.38;;;10.86;100.00
62420;BME280;48460;51.616;5.426;2023-03-22T14:59:41;100446.69;;;10.76;100.00
62420;BME280;48460;51.616;5.426;2023-03-22T15:02:34;100449.50;;;10.72;100.00
62420;BME280;48460;51.616;5.426;2023-03-22T15:12:02;100461.09;;;10.84;100.00
62420;BME280;48460;51.616;5.426;2023-03-22T15:14:33;100465.75;;;10.79;100.00
62420;BME280;48460;51.616;5.426;2023-03-22T15:17:01;100442.53;;;10.57;100.00
62420;BME280;48460;51.616;5.426;2023-03-22T15:19:49;100455.31;;;10.63;100.00
62420;BME280;48460;51.616;5.426;2023-03-22T15:32:49;100439.59;;;10.16;100.00
62420;BME280;48460;51.616;5.426;2023-03-22T15:38:39;100456.31;;;10.15;100.00
62420;BME280;48460;51.616;5.426;2023-03-22T15:44:32;100445.06;;;9.97;100.00
62420;BME280;48460;51.616;5.426;2023-03-22T15:49:43;100435.91;;;9.88;100.00
62420;BME280;48460;51.616;5.426;2023-03-22T15:52:21;100431.56;;;9.87;100.00
62420;BME280;48460;51.616;5.426;2023-03-22T15:55:13;100443.78;;;9.88;100.00
62420;BME280;48460;51.616;5.426;2023-03-22T15:57:59;100446.66;;;9.84;100.00
62420;BME280;48460;51.616;5.426;2023-03-22T16:00:34;100444.13;;;9.82;100.00
62420;BME280;48460;51.616;5.426;2023-03-22T16:05:58;100435.22;;;9.69;100.00
62420;BME280;48460;51.616;5.426;2023-03-22T16:08:26;100433.53;;;9.68;100.00
62420;BME280;48460;51.616;5.426;2023-03-22T16:10:54;100437.09;;;9.67;100.00
62420;BME280;48460;51.616;5.426;2023-03-22T16:13:23;100435.31;;;9.67;100.00
62420;BME280;48460;51.616;5.426;2023-03-22T16:15:53;100450.63;;;9.75;100.00
62420;BME280;48460;51.616;5.426;2023-03-22T16:18:30;100428.34;;;9.66;100.00
62420;BME280;48460;51.616;5.426;2023-03-22T16:20:59;100442.09;;;9.71;100.00
62420;BME280;48460;51.616;5.426;2023-03-22T16:23:27;100428.28;;;9.68;100.00
62420;BME280;48460;51.616;5.426;2023-03-22T16:26:00;100440.97;;;9.75;100.00
62420;BME280;48460;51.616;5.426;2023-03-22T16:28:29;100423.88;;;9.68;100.00
62420;BME280;48460;51.616;5.426;2023-03-22T16:30:59;100429.06;;;9.70;100.00
62420;BME280;48460;51.616;5.426;2023-03-22T16:33:29;100426.66;;;9.65;100.00
62420;BME280;48460;51.616;5.426;2023-03-22T16:36:00;100435.38;;;9.66;100.00
62420;BME280;48460;51.616;5.426;2023-03-22T16:38:47;100423.38;;;9.62;100.00
62420;BME280;48460;51.616;5.426;2023-03-22T16:41:31;100418.13;;;9.62;100.00
62420;BME280;48460;51.616;5.426;2023-03-22T16:43:58;100432.75;;;9.66;100.00
62420;BME280;48460;51.616;5.426;2023-03-22T16:46:29;100422.44;;;9.63;100.00
62420;BME280;48460;51.616;5.426;2023-03-22T16:48:55;100422.25;;;9.66;100.00
62420;BME280;48460;51.616;5.426;2023-03-22T16:51:27;100421.34;;;9.67;100.00
62420;BME280;48460;51.616;5.426;2023-03-22T16:53:55;100406.06;;;9.57;100.00
62420;BME280;48460;51.616;5.426;2023-03-22T16:56:31;100403.81;;;9.67;100.00
62420;BME280;48460;51.616;5.426;2023-03-22T16:59:03;100411.41;;;9.72;100.00
62420;BME280;48460;51.616;5.426;2023-03-22T17:01:39;100395.09;;;9.67;100.00
62420;BME280;48460;51.616;5.426;2023-03-22T17:04:08;100390.84;;;9.64;100.00
62420;BME280;48460;51.616;5.426;2023-03-22T17:06:44;100388.13;;;9.66;100.00
62420;BME280;48460;51.616;5.426;2023-03-22T17:09:12;100392.38;;;9.68;100.00
62420;BME280;48460;51.616;5.426;2023-03-22T17:11:40;100395.09;;;9.67;100.00
62420;BME280;48460;51.616;5.426;2023-03-22T17:14:12;100378.47;;;9.66;100.00
62420;BME280;48460;51.616;5.426;2023-03-22T17:16:45;100393.47;;;9.64;100.00
62420;BME280;48460;51.616;5.426;2023-03-22T17:19:10;100390.34;;;9.73;100.00
62420;BME280;48460;51.616;5.426;2023-03-22T17:21:41;100390.41;;;9.72;100.00
62420;BME280;48460;51.616;5.426;2023-03-22T17:24:14;100392.28;;;9.70;100.00
62420;BME280;48460;51.616;5.426;2023-03-22T17:26:43;100383.38;;;9.72;100.00
62420;BME280;48460;51.616;5.426;2023-03-22T17:29:20;100386.28;;;9.68;100.00
62420;BME280;48460;51.616;5.426;2023-03-22T17:31:55;100387.22;;;9.67;100.00
62420;BME280;48460;51.616;5.426;2023-03-22T17:34:30;100389.41;;;9.74;100.00
62420;BME280;48460;51.616;5.426;2023-03-22T17:36:59;100411.84;;;9.80;100.00
62420;BME280;48460;51.616;5.426;2023-03-22T17:39:27;100397.09;;;9.77;100.00
62420;BME280;48460;51.616;5.426;2023-03-22T17:42:00;100390.91;;;9.78;100.00
62420;BME280;48460;51.616;5.426;2023-03-22T17:44:28;100403.03;;;9.81;100.00
62420;BME280;48460;51.616;5.426;2023-03-22T17:46:55;100401.50;;;9.77;100.00
62420;BME280;48460;51.616;5.426;2023-03-22T17:49:21;100411.59;;;9.85;100.00
62420;BME280;48460;51.616;5.426;2023-03-22T17:51:50;100407.38;;;9.82;100.00
62420;BME280;48460;51.616;5.426;2023-03-22T17:54:22;100419.97;;;9.91;100.00
62420;BME280;48460;51.616;5.426;2023-03-22T17:56:50;100418.53;;;9.86;100.00
62420;BME280;48460;51.616;5.426;2023-03-22T17:59:17;100414.13;;;9.86;100.00
62420;BME280;48460;51.616;5.426;2023-03-22T18:01:49;100421.00;;;9.89;100.00
62420;BME280;48460;51.616;5.426;2023-03-22T18:04:15;100414.28;;;9.83;100.00
62420;BME280;48460;51.616;5.426;2023-03-22T18:06:43;100401.84;;;9.87;100.00
62420;BME280;48460;51.616;5.426;2023-03-22T18:09:12;100390.84;;;9.80;100.00
62420;BME280;48460;51.616;5.426;2023-03-22T18:11:40;100401.41;;;9.78;100.00
62420;BME280;48460;51.616;5.426;2023-03-22T18:14:08;100394.47;;;9.77;100.00
62420;BME280;48460;51.616;5.426;2023-03-22T18:16:36;100386.53;;;9.79;100.00
62420;BME280;48460;51.616;5.426;2023-03-22T18:19:05;100398.72;;;9.80;100.00
62420;BME280;48460;51.616;5.426;2023-03-22T18:21:53;100399.47;;;9.82;100.00
62420;BME280;48460;51.616;5.426;2023-03-22T18:24:18;100384.75;;;9.79;100.00
62420;BME280;48460;51.616;5.426;2023-03-22T18:26:44;100385.59;;;9.80;100.00
62420;BME280;48460;51.616;5.426;2023-03-22T18:29:12;100389.81;;;9.82;100.00
62420;BME280;48460;51.616;5.426;2023-03-22T18:42:17;100364.91;;;9.74;100.00
62420;BME280;48460;51.616;5.426;2023-03-22T18:44:43;100372.19;;;9.69;100.00
62420;BME280;48460;51.616;5.426;2023-03-22T18:47:22;100370.88;;;9.62;100.00
62420;BME280;48460;51.616;5.426;2023-03-22T18:49:50;100367.41;;;9.61;100.00
62420;BME280;48460;51.616;5.426;2023-03-22T18:52:20;100370.09;;;9.59;100.00
62420;BME280;48460;51.616;5.426;2023-03-22T18:54:59;100357.28;;;9.69;100.00
62420;BME280;48460;51.616;5.426;2023-03-22T18:57:51;100345.09;;;9.68;100.00
62420;BME280;48460;51.616;5.426;2023-03-22T19:10:36;100319.09;;;9.64;100.00
62420;BME280;48460;51.616;5.426;2023-03-22T19:13:09;100309.34;;;9.66;100.00
62420;BME280;48460;51.616;5.426;2023-03-22T19:15:36;100311.97;;;9.66;100.00
62420;BME280;48460;51.616;5.426;2023-03-22T19:18:05;100306.06;;;9.62;100.00
62420;BME280;48460;51.616;5.426;2023-03-22T19:20:36;100320.03;;;9.63;100.00
62420;BME280;48460;51.616;5.426;2023-03-22T19:23:07;100323.16;;;9.69;100.00
62420;BME280;48460;51.616;5.426;2023-03-22T19:25:40;100317.25;;;9.66;100.00
62420;BME280;48460;51.616;5.426;2023-03-22T19:28:14;100304.59;;;9.72;100.00
62420;BME280;48460;51.616;5.426;2023-03-22T19:30:52;100304.78;;;9.69;100.00
62420;BME280;48460;51.616;5.426;2023-03-22T19:33:21;100303.03;;;9.70;100.00
62420;BME280;48460;51.616;5.426;2023-03-22T19:36:09;100320.00;;;9.78;100.00
62420;BME280;48460;51.616;5.426;2023-03-22T19:38:38;100309.78;;;9.74;100.00
62420;BME280;48460;51.616;5.426;2023-03-22T19:41:13;100307.63;;;9.80;100.00
62420;BME280;48460;51.616;5.426;2023-03-22T19:43:49;100309.91;;;9.87;100.00
62420;BME280;48460;51.616;5.426;2023-03-22T19:46:22;100293.84;;;9.77;100.00
62420;BME280;48460;51.616;5.426;2023-03-22T19:49:02;100303.22;;;9.81;100.00
62420;BME280;48460;51.616;5.426;2023-03-22T19:51:30;100302.88;;;9.87;100.00
62420;BME280;48460;51.616;5.426;2023-03-22T19:54:02;100312.53;;;9.87;100.00
62420;BME280;48460;51.616;5.426;2023-03-22T19:56:34;100308.91;;;9.89;100.00
62420;BME280;48460;51.616;5.426;2023-03-22T19:59:03;100324.66;;;9.89;100.00
62420;BME280;48460;51.616;5.426;2023-03-22T20:01:34;100330.56;;;9.93;100.00
62420;BME280;48460;51.616;5.426;2023-03-22T20:04:05;100328.09;;;10.06;100.00
62420;BME280;48460;51.616;5.426;2023-03-22T20:06:33;100316.59;;;9.92;100.00
62420;BME280;48460;51.616;5.426;2023-03-22T20:09:09;100321.59;;;9.97;100.00
62420;BME280;48460;51.616;5.426;2023-03-22T20:11:39;100317.13;;;9.83;100.00
62420;BME280;48460;51.616;5.426;2023-03-22T20:14:07;100312.88;;;9.80;100.00
62420;BME280;48460;51.616;5.426;2023-03-22T20:16:37;100313.06;;;9.77;100.00
62420;BME280;48460;51.616;5.426;2023-03-22T20:19:05;100317.31;;;9.80;100.00
62420;BME280;48460;51.616;5.426;2023-03-22T20:21:34;100317.31;;;9.80;100.00
62420;BME280;48460;51.616;5.426;2023-03-22T20:24:00;100301.91;;;9.74;100.00
62420;BME280;48460;51.616;5.426;2023-03-22T20:26:28;100303.50;;;9.76;100.00
62420;BME280;48460;51.616;5.426;2023-03-22T20:28:56;100291.41;;;9.74;100.00
62420;BME280;48460;51.616;5.426;2023-03-22T20:31:27;100285.47;;;9.70;100.00
62420;BME280;48460;51.616;5.426;2023-03-22T20:34:06;100278.69;;;9.66;100.00
62420;BME280;48460;51.616;5.426;2023-03-22T20:36:41;100301.25;;;9.70;100.00
62420;BME280;48460;51.616;5.426;2023-03-22T20:39:14;100271.09;;;9.62;100.00
62420;BME280;48460;51.616;5.426;2023-03-22T20:41:41;100267.63;;;9.61;100.00
62420;BME280;48460;51.616;5.426;2023-03-22T20:44:06;100276.84;;;9.68;100.00
62420;BME280;48460;51.616;5.426;2023-03-22T20:46:34;100260.59;;;9.62;100.00
62420;BME280;48460;51.616;5.426;2023-03-22T20:49:00;100263.63;;;9.70;100.00
62420;BME280;48460;51.616;5.426;2023-03-22T20:51:28;100267.19;;;9.69;100.00
62420;BME280;48460;51.616;5.426;2023-03-22T20:53:59;100254.88;;;9.69;100.00
62420;BME280;48460;51.616;5.426;2023-03-22T20:56:28;100240.09;;;9.68;100.00
62420;BME280;48460;51.616;5.426;2023-03-22T20:59:00;100259.41;;;9.67;100.00